createdAt,value
2018-08-13T00:00:04.292Z,19.3
2018-08-13T00:01:05.577Z,19.3
2018-08-13T00:02:08.417Z,19
2018-08-13T00:03:09.687Z,19.1
2018-08-13T00:04:10.896Z,19.1
2018-08-13T00:05:12.117Z,19.1
2018-08-13T00:06:13.339Z,19.1
2018-08-13T00:07:16.434Z,19.1
2018-08-13T00:08:17.608Z,19.1
2018-08-13T00:09:18.851Z,19.1
2018-08-13T00:10:20.058Z,19.1
2018-08-13T00:11:21.251Z,19
2018-08-13T00:12:22.480Z,19.1
2018-08-13T00:13:23.843Z,19
2018-08-13T00:14:25.054Z,18.9
2018-08-13T00:15:26.291Z,19
2018-08-13T00:16:27.490Z,18.9
2018-08-13T00:17:28.917Z,18.9
2018-08-13T00:18:30.076Z,18.8
2018-08-13T00:19:31.303Z,18.9
2018-08-13T00:20:32.520Z,18.9
2018-08-13T00:21:33.725Z,18.8
2018-08-13T00:22:35.258Z,18.8
2018-08-13T00:23:36.703Z,18.8
2018-08-13T00:24:37.968Z,18.8
2018-08-13T00:25:39.158Z,18.8
2018-08-13T00:26:40.375Z,18.7
2018-08-13T00:27:41.644Z,18.8
2018-08-13T00:28:42.840Z,18.7
2018-08-13T00:29:44.024Z,18.7
2018-08-13T00:30:47.717Z,18.7
2018-08-13T00:31:51.145Z,18.6
2018-08-13T00:32:52.794Z,18.6
2018-08-13T00:33:54.037Z,18.6
2018-08-13T00:34:57.501Z,18.6
2018-08-13T00:35:58.699Z,18.6
2018-08-13T00:37:00.678Z,18.6
2018-08-13T00:38:02.219Z,18.6
2018-08-13T00:39:03.539Z,18.5
2018-08-13T00:40:07.359Z,18.5
2018-08-13T00:41:08.542Z,18.5
2018-08-13T00:42:09.815Z,18.5
2018-08-13T00:43:14.717Z,18.5
2018-08-13T00:44:15.955Z,18.5
2018-08-13T00:45:17.152Z,18.5
2018-08-13T00:46:20.483Z,18.5
2018-08-13T00:47:22.096Z,18.4
2018-08-13T00:48:23.356Z,18.4
2018-08-13T00:49:24.570Z,18.4
2018-08-13T00:50:25.852Z,18.3
2018-08-13T00:51:30.149Z,18.3
2018-08-13T00:52:31.336Z,18.3
2018-08-13T00:53:34.154Z,18.4
2018-08-13T00:54:35.352Z,18.4
2018-08-13T00:55:36.531Z,18.2
2018-08-13T00:56:37.720Z,18.3
2018-08-13T00:57:38.914Z,18.3
2018-08-13T00:58:40.144Z,18.3
2018-08-13T00:59:41.328Z,18.3
2018-08-13T01:00:42.507Z,18.3
2018-08-13T01:01:43.700Z,18.3
2018-08-13T01:02:44.872Z,18.3
2018-08-13T01:03:46.084Z,18.4
2018-08-13T01:04:47.297Z,18.3
2018-08-13T01:05:51.220Z,18.3
2018-08-13T01:06:52.431Z,18.3
2018-08-13T01:07:53.634Z,18.3
2018-08-13T01:08:55.399Z,18.2
2018-08-13T01:10:00.988Z,18.1
2018-08-13T01:11:07.519Z,18.1
2018-08-13T01:12:08.760Z,18.1
2018-08-13T01:13:12.367Z,18.2
2018-08-13T01:14:13.605Z,18.2
2018-08-13T01:15:17.434Z,18.1
2018-08-13T01:16:19.185Z,18.1
2018-08-13T01:17:25.971Z,18
2018-08-13T01:18:28.553Z,18
2018-08-13T01:19:35.641Z,18.1
2018-08-13T01:20:37.114Z,18.1
2018-08-13T01:21:38.281Z,18
2018-08-13T01:22:39.470Z,18.1
2018-08-13T01:23:40.962Z,18
2018-08-13T01:24:42.358Z,18
2018-08-13T01:25:49.631Z,17.9
2018-08-13T01:26:50.877Z,18
2018-08-13T01:27:52.068Z,17.9
2018-08-13T01:28:53.285Z,17.9
2018-08-13T01:29:57.523Z,17.9
2018-08-13T01:30:58.735Z,17.9
2018-08-13T01:31:59.940Z,17.8
2018-08-13T01:33:01.144Z,17.9
2018-08-13T01:34:03.050Z,17.9
2018-08-13T01:35:04.272Z,17.8
2018-08-13T01:36:08.285Z,17.8
2018-08-13T01:37:09.848Z,17.6
2018-08-13T01:38:11.480Z,17.7
2018-08-13T01:39:12.703Z,17.8
2018-08-13T01:40:15.239Z,17.8
2018-08-13T01:41:17.854Z,17.8
2018-08-13T01:42:21.789Z,17.7
2018-08-13T01:43:22.993Z,17.7
2018-08-13T01:44:24.255Z,17.6
2018-08-13T01:45:27.227Z,17.6
2018-08-13T01:46:31.182Z,17.6
2018-08-13T01:47:32.460Z,17.5
2018-08-13T01:48:33.665Z,17.5
2018-08-13T01:49:34.884Z,17.5
2018-08-13T01:50:38.376Z,17.5
2018-08-13T01:51:39.561Z,17.4
2018-08-13T01:52:40.785Z,17.4
2018-08-13T01:53:42.002Z,17.4
2018-08-13T01:54:43.207Z,17.4
2018-08-13T01:55:44.872Z,17.4
2018-08-13T01:56:46.049Z,17.4
2018-08-13T01:57:47.253Z,17.3
2018-08-13T01:58:49.872Z,17.4
2018-08-13T01:59:51.052Z,17.4
2018-08-13T02:00:52.227Z,17.4
2018-08-13T02:01:53.476Z,17.4
2018-08-13T02:02:54.605Z,17.4
2018-08-13T02:03:55.795Z,17.4
2018-08-13T02:04:59.651Z,17.4
2018-08-13T02:06:00.856Z,17.4
2018-08-13T02:07:02.104Z,17.4
2018-08-13T02:08:03.316Z,17.4
2018-08-13T02:09:06.746Z,17.3
2018-08-13T02:10:08.174Z,17.4
2018-08-13T02:11:09.429Z,17.3
2018-08-13T02:12:14.106Z,17.3
2018-08-13T02:13:15.266Z,17.3
2018-08-13T02:14:16.536Z,17
2018-08-13T02:15:17.703Z,17.3
2018-08-13T02:16:18.931Z,17.3
2018-08-13T02:17:20.217Z,17.3
2018-08-13T02:18:24.143Z,17.2
2018-08-13T02:19:25.329Z,17.3
2018-08-13T02:20:26.533Z,17.2
2018-08-13T02:21:27.788Z,17.2
2018-08-13T02:22:30.803Z,17.1
2018-08-13T02:23:32.001Z,17.2
2018-08-13T02:24:33.236Z,17.2
2018-08-13T02:25:34.411Z,17.2
2018-08-13T02:26:36.107Z,17.1
2018-08-13T02:27:37.307Z,17.1
2018-08-13T02:28:41.700Z,17.1
2018-08-13T02:29:42.883Z,17.1
2018-08-13T02:30:44.084Z,17
2018-08-13T02:31:45.318Z,17
2018-08-13T02:32:46.532Z,17
2018-08-13T02:33:47.719Z,17
2018-08-13T02:34:48.947Z,17
2018-08-13T02:35:50.197Z,16.9
2018-08-13T02:36:51.382Z,16.9
2018-08-13T02:37:52.581Z,16.9
2018-08-13T02:38:53.763Z,16.9
2018-08-13T02:39:54.939Z,16.9
2018-08-13T02:40:56.134Z,16.9
2018-08-13T02:42:01.219Z,16.8
2018-08-13T02:43:02.423Z,16.9
2018-08-13T02:44:03.626Z,17
2018-08-13T02:45:04.875Z,17
2018-08-13T02:46:06.081Z,16.8
2018-08-13T02:47:07.307Z,16.9
2018-08-13T02:48:08.545Z,16.9
2018-08-13T02:49:09.739Z,16.8
2018-08-13T02:50:10.972Z,16.8
2018-08-13T02:51:12.128Z,16.8
2018-08-13T02:52:13.381Z,16.8
2018-08-13T02:53:14.596Z,16.8
2018-08-13T02:54:15.781Z,16.8
2018-08-13T02:55:16.947Z,16.8
2018-08-13T02:56:18.117Z,16.8
2018-08-13T02:57:19.756Z,16.8
2018-08-13T02:58:20.952Z,16.9
2018-08-13T02:59:22.159Z,16.8
2018-08-13T03:00:23.400Z,16.9
2018-08-13T03:01:24.617Z,16.9
2018-08-13T03:02:25.816Z,16.8
2018-08-13T03:03:27.064Z,16.8
2018-08-13T03:04:28.303Z,16.8
2018-08-13T03:05:29.559Z,16.8
2018-08-13T03:06:30.816Z,16.8
2018-08-13T03:07:32.024Z,16.8
2018-08-13T03:08:33.206Z,16.8
2018-08-13T03:09:34.412Z,16.8
2018-08-13T03:10:35.623Z,16.9
2018-08-13T03:11:38.569Z,16.7
2018-08-13T03:12:40.594Z,16.8
2018-08-13T03:13:41.789Z,16.7
2018-08-13T03:14:42.992Z,16.7
2018-08-13T03:15:44.163Z,16.8
2018-08-13T03:16:45.439Z,16.8
2018-08-13T03:17:49.824Z,16.7
2018-08-13T03:18:51.038Z,16.7
2018-08-13T03:19:52.267Z,16.7
2018-08-13T03:20:53.468Z,16.7
2018-08-13T03:21:57.474Z,16.7
2018-08-13T03:22:58.683Z,16.6
2018-08-13T03:23:59.895Z,16.6
2018-08-13T03:25:01.258Z,16.6
2018-08-13T03:26:02.431Z,16.6
2018-08-13T03:27:18.078Z,16.6
2018-08-13T03:28:19.303Z,16.5
2018-08-13T03:29:20.529Z,16.6
2018-08-13T03:30:23.913Z,16.5
2018-08-13T03:31:25.120Z,16.5
2018-08-13T03:32:26.326Z,16.7
2018-08-13T03:33:27.570Z,16.6
2018-08-13T03:34:28.745Z,16.5
2018-08-13T03:35:29.986Z,16.5
2018-08-13T03:36:31.288Z,16.5
2018-08-13T03:37:32.527Z,16.5
2018-08-13T03:38:33.766Z,16.5
2018-08-13T03:39:35.031Z,16.5
2018-08-13T03:40:36.276Z,16.5
2018-08-13T03:41:37.494Z,16.4
2018-08-13T03:42:38.685Z,16.4
2018-08-13T03:43:40.149Z,16.4
2018-08-13T03:44:41.399Z,16.5
2018-08-13T03:45:42.671Z,16.5
2018-08-13T03:46:43.907Z,16.4
2018-08-13T03:47:45.127Z,16.4
2018-08-13T03:48:46.422Z,16.4
2018-08-13T03:49:47.741Z,16.4
2018-08-13T03:50:49.025Z,16.4
2018-08-13T03:51:50.231Z,16.4
2018-08-13T03:52:52.110Z,16.4
2018-08-13T03:53:54.398Z,16.4
2018-08-13T03:54:55.636Z,16.4
2018-08-13T03:55:56.851Z,16.4
2018-08-13T03:56:58.076Z,16.4
2018-08-13T03:57:59.323Z,16.4
2018-08-13T03:59:00.853Z,16.4
2018-08-13T04:00:02.167Z,16.4
2018-08-13T04:01:03.369Z,16.4
2018-08-13T04:02:04.567Z,16.4
2018-08-13T04:03:05.755Z,16.5
2018-08-13T04:04:08.685Z,16.4
2018-08-13T04:05:09.931Z,16.4
2018-08-13T04:06:11.165Z,16.3
2018-08-13T04:07:15.388Z,16.5
2018-08-13T04:08:16.587Z,16.5
2018-08-13T04:09:17.861Z,16.5
2018-08-13T04:10:19.051Z,16.5
2018-08-13T04:11:22.504Z,16.4
2018-08-13T04:12:27.215Z,16.4
2018-08-13T04:13:31.239Z,16.5
2018-08-13T04:14:39.057Z,16.5
2018-08-13T04:15:40.259Z,16.5
2018-08-13T04:16:44.542Z,16.5
2018-08-13T04:17:45.753Z,16.4
2018-08-13T04:18:46.965Z,16.5
2018-08-13T04:19:48.194Z,16.5
2018-08-13T04:20:49.382Z,16.5
2018-08-13T04:21:52.197Z,16.5
2018-08-13T04:22:56.540Z,16.5
2018-08-13T04:23:57.825Z,16.7
2018-08-13T04:25:01.456Z,16.7
2018-08-13T04:26:05.316Z,16.8
2018-08-13T04:27:07.844Z,17
2018-08-13T04:28:16.327Z,17
2018-08-13T04:29:20.549Z,17.2
2018-08-13T04:30:21.850Z,17.3
2018-08-13T04:31:23.084Z,17.4
2018-08-13T04:32:24.423Z,17.5
2018-08-13T04:33:25.618Z,17.5
2018-08-13T04:34:26.869Z,17.5
2018-08-13T04:35:28.209Z,17.5
2018-08-13T04:36:29.500Z,17.5
2018-08-13T04:37:30.754Z,17.5
2018-08-13T04:38:32.486Z,17.5
2018-08-13T04:39:33.737Z,17.7
2018-08-13T04:40:36.409Z,18
2018-08-13T04:41:37.640Z,18.1
2018-08-13T04:42:38.824Z,18.4
2018-08-13T04:43:40.062Z,18.6
2018-08-13T04:44:41.404Z,18.9
2018-08-13T04:45:42.736Z,19
2018-08-13T04:46:43.970Z,19.1
2018-08-13T04:47:45.202Z,19.4
2018-08-13T04:48:46.448Z,19.5
2018-08-13T04:49:47.673Z,19.6
2018-08-13T04:50:48.919Z,19.8
2018-08-13T04:51:50.146Z,19.9
2018-08-13T04:52:51.424Z,19.9
2018-08-13T04:53:52.653Z,19.9
2018-08-13T04:54:53.877Z,19.9
2018-08-13T04:55:55.177Z,20.1
2018-08-13T04:57:00.683Z,20.3
2018-08-13T04:58:01.974Z,20.3
2018-08-13T04:59:03.246Z,20.5
2018-08-13T05:00:04.484Z,20.4
2018-08-13T05:01:06.200Z,20.5
2018-08-13T05:02:07.419Z,20.5
2018-08-13T05:03:08.610Z,20.5
2018-08-13T05:04:09.793Z,20.5
2018-08-13T05:05:11.065Z,20.7
2018-08-13T05:06:12.308Z,20.7
2018-08-13T05:07:13.788Z,20.8
2018-08-13T05:08:14.974Z,21
2018-08-13T05:09:16.176Z,21.3
2018-08-13T05:10:17.359Z,21.5
2018-08-13T05:11:20.191Z,21.7
2018-08-13T05:12:24.600Z,22
2018-08-13T05:13:25.823Z,22.2
2018-08-13T05:14:31.998Z,22.6
2018-08-13T05:15:33.232Z,22.7
2018-08-13T05:16:34.536Z,22.8
2018-08-13T05:17:35.923Z,23
2018-08-13T05:18:37.187Z,23.2
2018-08-13T05:19:38.527Z,23.3
2018-08-13T05:20:39.846Z,23.4
2018-08-13T05:21:41.200Z,23.6
2018-08-13T05:22:42.492Z,23.9
2018-08-13T05:23:44.331Z,23.9
2018-08-13T05:24:45.514Z,24.3
2018-08-13T05:25:46.943Z,24.3
2018-08-13T05:26:48.448Z,24.5
2018-08-13T05:27:49.749Z,24.6
2018-08-13T05:28:50.980Z,24.3
2018-08-13T05:29:54.711Z,24.6
2018-08-13T05:30:56.183Z,25
2018-08-13T05:31:59.678Z,24.8
2018-08-13T05:33:04.434Z,25.2
2018-08-13T05:34:07.137Z,24.9
2018-08-13T05:35:08.332Z,24.4
2018-08-13T05:36:09.690Z,25
2018-08-13T05:37:11.631Z,24.6
2018-08-13T05:38:16.631Z,24.8
2018-08-13T05:39:17.859Z,24.6
2018-08-13T05:40:19.161Z,24.1
2018-08-13T05:41:20.435Z,24.4
2018-08-13T05:42:30.318Z,24.5
2018-08-13T05:43:34.456Z,24.7
2018-08-13T05:44:35.630Z,24.6
2018-08-13T05:45:39.654Z,25.2
2018-08-13T05:46:41.975Z,25.1
2018-08-13T05:47:43.374Z,25
2018-08-13T05:48:44.609Z,25.1
2018-08-13T05:49:45.878Z,25.1
2018-08-13T05:50:49.481Z,25
2018-08-13T05:51:52.221Z,25
2018-08-13T05:52:58.076Z,25
2018-08-13T05:54:02.492Z,25.1
2018-08-13T05:55:03.730Z,25.1
2018-08-13T05:56:04.980Z,25.3
2018-08-13T05:57:09.362Z,25.1
2018-08-13T05:58:10.825Z,25.4
2018-08-13T05:59:12.272Z,25.8
2018-08-13T06:00:13.487Z,26.1
2018-08-13T06:01:15.267Z,25.6
2018-08-13T06:02:18.343Z,26.2
2018-08-13T06:03:19.672Z,26.3
2018-08-13T06:04:21.885Z,25.7
2018-08-13T06:05:26.519Z,26
2018-08-13T06:06:27.773Z,26.2
2018-08-13T06:07:31.481Z,25.7
2018-08-13T06:08:37.724Z,25.4
2018-08-13T06:09:39.103Z,25.3
2018-08-13T06:10:40.603Z,25.4
2018-08-13T06:11:44.615Z,25.3
2018-08-13T06:12:45.734Z,26.3
2018-08-13T06:13:49.239Z,26.4
2018-08-13T06:14:53.483Z,25.9
2018-08-13T06:15:54.712Z,25.4
2018-08-13T06:16:55.950Z,26.7
2018-08-13T06:17:59.623Z,27
2018-08-13T06:19:03.544Z,26.2
2018-08-13T06:20:07.387Z,25.8
2018-08-13T06:21:10.775Z,25.6
2018-08-13T06:22:14.824Z,25.9
2018-08-13T06:23:16.113Z,26
2018-08-13T06:24:17.437Z,25.9
2018-08-13T06:25:18.571Z,26
2018-08-13T06:26:22.161Z,26.2
2018-08-13T06:27:23.466Z,26
2018-08-13T06:28:24.712Z,26.2
2018-08-13T06:29:26.041Z,26.7
2018-08-13T06:30:27.280Z,26.5
2018-08-13T06:31:28.532Z,26.2
2018-08-13T06:32:29.755Z,26.4
2018-08-13T06:33:31.056Z,27.1
2018-08-13T06:34:35.421Z,26.8
2018-08-13T06:35:36.763Z,26.8
2018-08-13T06:36:47.011Z,26.9
2018-08-13T06:37:53.521Z,26.9
2018-08-13T06:38:54.767Z,27.4
2018-08-13T06:40:01.385Z,27.2
2018-08-13T06:41:02.760Z,27.3
2018-08-13T06:42:07.307Z,27.3
2018-08-13T06:43:11.306Z,27.3
2018-08-13T06:44:15.282Z,27.5
2018-08-13T06:45:16.674Z,28.1
2018-08-13T06:46:17.900Z,28.3
2018-08-13T06:47:19.152Z,28
2018-08-13T06:48:20.407Z,27.9
2018-08-13T06:49:22.121Z,27.7
2018-08-13T06:50:26.289Z,27.7
2018-08-13T06:51:30.538Z,28
2018-08-13T06:52:32.165Z,28.3
2018-08-13T06:53:33.511Z,28.4
2018-08-13T06:54:35.009Z,28.1
2018-08-13T06:55:36.817Z,28
2018-08-13T06:56:38.265Z,28.6
2018-08-13T06:57:40.011Z,29.8
2018-08-13T06:58:44.594Z,29.6
2018-08-13T06:59:46.860Z,28.6
2018-08-13T07:00:48.548Z,28.2
2018-08-13T07:01:51.281Z,28.1
2018-08-13T07:02:55.233Z,28
2018-08-13T07:03:56.588Z,27.8
2018-08-13T07:04:58.017Z,27.9
2018-08-13T07:05:59.568Z,27.9
2018-08-13T07:07:01.404Z,27.9
2018-08-13T07:08:03.201Z,27.8
2018-08-13T07:09:06.875Z,27.9
2018-08-13T07:10:08.284Z,28.2
2018-08-13T07:11:10.685Z,28.2
2018-08-13T07:12:12.007Z,28.2
2018-08-13T07:13:13.330Z,28.1
2018-08-13T07:14:17.671Z,28.1
2018-08-13T07:15:21.600Z,28
2018-08-13T07:16:26.153Z,28
2018-08-13T07:17:32.812Z,28
2018-08-13T07:18:36.367Z,28.2
2018-08-13T07:19:37.861Z,28
2018-08-13T07:20:41.319Z,28
2018-08-13T07:21:47.371Z,28.2
2018-08-13T07:22:52.304Z,28.1
2018-08-13T07:23:56.444Z,28
2018-08-13T07:24:57.668Z,28.3
2018-08-13T07:25:59.120Z,28.2
2018-08-13T07:27:01.069Z,28.1
2018-08-13T07:28:02.569Z,28
2018-08-13T07:29:07.354Z,28
2018-08-13T07:30:10.142Z,28
2018-08-13T07:31:13.164Z,28
2018-08-13T07:32:17.901Z,28
2018-08-13T07:33:19.418Z,27.9
2018-08-13T07:34:21.868Z,27.8
2018-08-13T07:35:25.536Z,28.2
2018-08-13T07:36:26.784Z,28
2018-08-13T07:37:31.045Z,27.7
2018-08-13T07:38:35.121Z,27.9
2018-08-13T07:39:36.490Z,28.1
2018-08-13T07:40:38.248Z,27.8
2018-08-13T07:41:45.502Z,28.1
2018-08-13T07:42:49.690Z,27.9
2018-08-13T07:43:52.986Z,27.8
2018-08-13T07:44:54.288Z,27.8
2018-08-13T07:45:57.898Z,27.6
2018-08-13T07:47:04.818Z,27.6
2018-08-13T07:48:06.661Z,27.8
2018-08-13T07:49:08.016Z,27.7
2018-08-13T07:50:09.349Z,27.5
2018-08-13T07:51:13.397Z,27.5
2018-08-13T07:52:14.647Z,27.3
2018-08-13T07:53:18.586Z,27.2
2018-08-13T07:54:19.824Z,27.1
2018-08-13T07:55:22.401Z,26.7
2018-08-13T07:56:23.651Z,26.6
2018-08-13T07:57:24.913Z,26.5
2018-08-13T07:58:26.151Z,26.4
2018-08-13T07:59:30.160Z,26.3
2018-08-13T08:00:31.414Z,26.1
2018-08-13T08:01:32.648Z,26.2
2018-08-13T08:02:33.919Z,26.2
2018-08-13T08:03:36.323Z,26.2
2018-08-13T08:04:39.796Z,26.1
2018-08-13T08:05:41.255Z,26.2
2018-08-13T08:06:43.792Z,26.2
2018-08-13T08:07:45.038Z,26.2
2018-08-13T08:08:46.466Z,26.1
2018-08-13T08:09:47.707Z,26.1
2018-08-13T08:10:51.461Z,26.2
2018-08-13T08:11:57.362Z,26.2
2018-08-13T08:12:58.727Z,26.1
2018-08-13T08:14:00.085Z,25.9
2018-08-13T08:15:01.452Z,26
2018-08-13T08:16:02.705Z,25.9
2018-08-13T08:17:04.052Z,25.7
2018-08-13T08:18:05.575Z,25.5
2018-08-13T08:19:09.123Z,25.5
2018-08-13T08:20:11.028Z,25.4
2018-08-13T08:21:12.293Z,25.4
2018-08-13T08:22:23.713Z,25.4
2018-08-13T08:23:35.723Z,25.2
2018-08-13T08:24:37.304Z,25.2
2018-08-13T08:25:42.555Z,25.1
2018-08-13T08:26:43.948Z,25.2
2018-08-13T08:27:49.175Z,25.2
2018-08-13T08:28:59.619Z,25.1
2018-08-13T08:30:00.917Z,25.5
2018-08-13T08:31:02.395Z,25.5
2018-08-13T08:32:05.216Z,25.8
2018-08-13T08:33:06.436Z,25.9
2018-08-13T08:34:07.699Z,25.9
2018-08-13T08:35:12.351Z,25.9
2018-08-13T08:36:13.647Z,26
2018-08-13T08:37:17.289Z,26
2018-08-13T08:38:20.129Z,26
2018-08-13T08:39:27.229Z,26.1
2018-08-13T08:40:28.775Z,26.1
2018-08-13T08:41:35.427Z,26.2
2018-08-13T08:42:39.051Z,26.1
2018-08-13T08:43:40.291Z,26.2
2018-08-13T08:44:41.555Z,26.2
2018-08-13T08:45:43.274Z,26.2
2018-08-13T08:46:44.596Z,26.2
2018-08-13T08:47:46.398Z,26.3
2018-08-13T08:48:47.605Z,26.2
2018-08-13T08:49:49.870Z,26.1
2018-08-13T08:50:51.722Z,26.2
2018-08-13T08:51:52.990Z,26.2
2018-08-13T08:52:54.224Z,26.2
2018-08-13T08:54:00.120Z,26.2
2018-08-13T08:55:01.427Z,26.2
2018-08-13T08:56:05.026Z,26.1
2018-08-13T08:57:07.866Z,26.2
2018-08-13T08:58:11.503Z,26.2
2018-08-13T08:59:13.174Z,26.1
2018-08-13T09:00:14.463Z,26.2
2018-08-13T09:01:21.900Z,26.1
2018-08-13T09:02:23.443Z,26.1
2018-08-13T09:03:24.621Z,26.1
2018-08-13T09:04:28.005Z,26
2018-08-13T09:05:29.251Z,26
2018-08-13T09:06:33.679Z,26
2018-08-13T09:07:34.982Z,25.9
2018-08-13T09:08:36.270Z,26
2018-08-13T09:09:40.556Z,26
2018-08-13T09:10:41.840Z,26
2018-08-13T09:11:43.152Z,26
2018-08-13T09:12:44.403Z,26
2018-08-13T09:13:45.896Z,26
2018-08-13T09:14:49.364Z,25.9
2018-08-13T09:15:50.743Z,25.9
2018-08-13T09:16:52.274Z,25.9
2018-08-13T09:17:53.737Z,25.9
2018-08-13T09:18:55.065Z,25.9
2018-08-13T09:19:56.399Z,25.9
2018-08-13T09:20:58.732Z,26
2018-08-13T09:22:05.405Z,26
2018-08-13T09:23:07.190Z,26
2018-08-13T09:24:08.509Z,26
2018-08-13T09:25:09.756Z,26
2018-08-13T09:26:11.033Z,26
2018-08-13T09:27:24.107Z,25.9
2018-08-13T09:28:28.291Z,26
2018-08-13T09:29:35.727Z,26
2018-08-13T09:30:37.125Z,26
2018-08-13T09:31:41.743Z,25.9
2018-08-13T09:32:43.149Z,25.9
2018-08-13T09:33:44.541Z,25.9
2018-08-13T09:34:52.499Z,26
2018-08-13T09:35:58.002Z,26
2018-08-13T09:36:59.428Z,26
2018-08-13T09:38:01.275Z,26
2018-08-13T09:39:02.752Z,26
2018-08-13T09:40:04.326Z,25.9
2018-08-13T09:41:05.552Z,26
2018-08-13T09:42:07.300Z,26
2018-08-13T09:43:09.270Z,26.1
2018-08-13T09:44:10.579Z,26.1
2018-08-13T09:45:11.869Z,26.1
2018-08-13T09:46:13.745Z,26.1
2018-08-13T09:47:15.010Z,26
2018-08-13T09:48:16.512Z,26
2018-08-13T09:49:19.312Z,26.1
2018-08-13T09:50:37.766Z,26.1
2018-08-13T09:51:42.146Z,26.1
2018-08-13T09:52:46.403Z,26.2
2018-08-13T09:53:55.039Z,26.2
2018-08-13T09:54:58.696Z,26.2
2018-08-13T09:56:00.055Z,26.2
2018-08-13T09:57:03.177Z,26.2
2018-08-13T09:58:13.725Z,26.1
2018-08-13T09:59:15.165Z,26.2
2018-08-13T10:00:18.153Z,26.2
2018-08-13T10:01:22.684Z,26.1
2018-08-13T10:02:32.072Z,26.1
2018-08-13T10:03:33.382Z,26.1
2018-08-13T10:04:34.625Z,26.1
2018-08-13T10:05:36.424Z,26.1
2018-08-13T10:06:37.668Z,26.1
2018-08-13T10:07:38.985Z,26.1
2018-08-13T10:08:40.347Z,26.1
2018-08-13T10:09:41.787Z,26.1
2018-08-13T10:10:43.076Z,26
2018-08-13T10:11:47.378Z,26
2018-08-13T10:12:51.566Z,25.9
2018-08-13T10:13:53.861Z,25.9
2018-08-13T10:14:57.604Z,25.8
2018-08-13T10:16:01.845Z,25.8
2018-08-13T10:17:03.366Z,25.8
2018-08-13T10:18:07.400Z,25.7
2018-08-13T10:19:08.750Z,25.7
2018-08-13T10:20:10.324Z,25.7
2018-08-13T10:21:12.848Z,25.7
2018-08-13T10:22:14.307Z,25.7
2018-08-13T10:23:18.239Z,25.7
2018-08-13T10:24:22.152Z,25.8
2018-08-13T10:25:23.605Z,25.8
2018-08-13T10:26:27.999Z,25.7
2018-08-13T10:27:29.411Z,25.7
2018-08-13T10:28:33.402Z,25.7
2018-08-13T10:29:37.055Z,25.7
2018-08-13T10:30:38.434Z,25.7
2018-08-13T10:31:39.686Z,25.7
2018-08-13T10:32:41.258Z,25.6
2018-08-13T10:33:42.543Z,25.6
2018-08-13T10:34:46.458Z,25.6
2018-08-13T10:35:47.808Z,25.6
2018-08-13T10:36:54.375Z,25.6
2018-08-13T10:38:08.493Z,25.6
2018-08-13T10:39:09.714Z,25.6
2018-08-13T10:40:11.963Z,25.6
2018-08-13T10:41:15.480Z,25.6
2018-08-13T10:42:25.778Z,25.6
2018-08-13T10:43:30.388Z,25.6
2018-08-13T10:44:35.746Z,25.6
2018-08-13T10:45:37.177Z,25.6
2018-08-13T10:46:38.475Z,25.6
2018-08-13T10:47:39.792Z,25.5
2018-08-13T10:48:41.047Z,25.5
2018-08-13T10:49:42.368Z,25.6
2018-08-13T10:50:43.670Z,25.6
2018-08-13T10:51:48.405Z,25.5
2018-08-13T10:52:49.775Z,25.5
2018-08-13T10:53:53.811Z,25.5
2018-08-13T10:54:55.056Z,25.6
2018-08-13T10:55:56.333Z,25.6
2018-08-13T10:56:57.955Z,25.5
2018-08-13T10:58:00.148Z,25.6
2018-08-13T10:59:01.780Z,25.7
2018-08-13T11:00:04.115Z,25.7
2018-08-13T11:01:05.686Z,25.6
2018-08-13T11:02:07.007Z,25.7
2018-08-13T11:03:08.417Z,25.7
2018-08-13T11:04:13.767Z,25.7
2018-08-13T11:05:15.107Z,25.7
2018-08-13T11:06:16.466Z,25.7
2018-08-13T11:07:17.992Z,25.7
2018-08-13T11:08:19.352Z,25.7
2018-08-13T11:09:20.788Z,25.7
2018-08-13T11:10:28.478Z,25.8
2018-08-13T11:11:29.704Z,25.6
2018-08-13T11:12:32.800Z,25.7
2018-08-13T11:13:34.485Z,25.7
2018-08-13T11:14:37.277Z,25.7
2018-08-13T11:15:40.729Z,25.7
2018-08-13T11:16:46.141Z,25.7
2018-08-13T11:17:48.689Z,25.7
2018-08-13T11:18:54.024Z,25.7
2018-08-13T11:19:55.908Z,25.7
2018-08-13T11:20:57.395Z,25.7
2018-08-13T11:21:58.822Z,25.7
2018-08-13T11:23:05.709Z,25.6
2018-08-13T11:24:25.456Z,25.6
2018-08-13T11:25:29.429Z,25.6
2018-08-13T11:26:31.080Z,25.5
2018-08-13T11:27:36.759Z,25.5
2018-08-13T11:28:42.585Z,25.5
2018-08-13T11:29:54.032Z,25.6
2018-08-13T11:30:55.324Z,25.5
2018-08-13T11:31:56.568Z,25.5
2018-08-13T11:32:57.839Z,25.5
2018-08-13T11:33:59.403Z,25.4
2018-08-13T11:35:02.162Z,25.5
2018-08-13T11:36:03.580Z,25.5
2018-08-13T11:37:05.931Z,25.5
2018-08-13T11:38:07.228Z,25.5
2018-08-13T11:39:08.557Z,25.5
2018-08-13T11:40:09.820Z,25.6
2018-08-13T11:41:11.104Z,25.6
2018-08-13T11:42:12.369Z,25.6
2018-08-13T11:43:13.960Z,25.6
2018-08-13T11:44:15.510Z,25.6
2018-08-13T11:45:20.090Z,25.6
2018-08-13T11:46:22.304Z,25.6
2018-08-13T11:47:23.718Z,25.6
2018-08-13T11:48:25.691Z,25.6
2018-08-13T11:49:29.395Z,25.7
2018-08-13T11:50:30.675Z,25.7
2018-08-13T11:51:34.143Z,25.7
2018-08-13T11:52:38.375Z,25.8
2018-08-13T11:53:45.859Z,25.8
2018-08-13T11:54:51.186Z,25.8
2018-08-13T11:55:52.726Z,25.8
2018-08-13T11:56:58.313Z,25.8
2018-08-13T11:58:00.827Z,25.7
2018-08-13T11:59:02.280Z,25.9
2018-08-13T12:00:06.086Z,25.8
2018-08-13T12:01:10.216Z,25.8
2018-08-13T12:02:23.415Z,25.8
2018-08-13T12:03:28.035Z,25.8
2018-08-13T12:04:29.583Z,25.9
2018-08-13T12:05:35.703Z,25.9
2018-08-13T12:06:36.948Z,25.9
2018-08-13T12:07:38.250Z,25.8
2018-08-13T12:08:39.479Z,25.9
2018-08-13T12:09:42.836Z,25.7
2018-08-13T12:10:44.346Z,25.8
2018-08-13T12:11:46.925Z,25.8
2018-08-13T12:12:48.533Z,25.8
2018-08-13T12:13:49.794Z,25.7
2018-08-13T12:14:51.251Z,25.7
2018-08-13T12:15:55.278Z,25.6
2018-08-13T12:16:57.995Z,25.7
2018-08-13T12:17:59.233Z,25.7
2018-08-13T12:19:06.897Z,25.7
2018-08-13T12:20:08.366Z,25.6
2018-08-13T12:21:11.387Z,25.6
2018-08-13T12:22:12.759Z,25.5
2018-08-13T12:23:21.528Z,25.6
2018-08-13T12:24:25.257Z,25.6
2018-08-13T12:25:30.924Z,25.6
2018-08-13T12:26:35.521Z,25.6
2018-08-13T12:27:37.959Z,25.7
2018-08-13T12:28:39.274Z,25.6
2018-08-13T12:29:44.263Z,25.6
2018-08-13T12:30:48.267Z,25.6
2018-08-13T12:31:49.775Z,25.6
2018-08-13T12:32:51.073Z,25.6
2018-08-13T12:33:52.296Z,25.6
2018-08-13T12:34:53.527Z,25.6
2018-08-13T12:35:57.101Z,25.7
2018-08-13T12:37:01.668Z,25.7
2018-08-13T12:38:02.927Z,25.7
2018-08-13T12:39:06.568Z,25.7
2018-08-13T12:40:07.961Z,25.6
2018-08-13T12:41:11.513Z,25.7
2018-08-13T12:42:15.414Z,25.7
2018-08-13T12:43:19.901Z,25.7
2018-08-13T12:44:21.381Z,25.8
2018-08-13T12:45:22.686Z,25.7
2018-08-13T12:46:28.816Z,25.7
2018-08-13T12:47:36.589Z,25.8
2018-08-13T12:48:39.339Z,25.8
2018-08-13T12:49:42.040Z,25.7
2018-08-13T12:50:43.306Z,25.7
2018-08-13T12:51:45.240Z,25.8
2018-08-13T12:54:07.013Z,25.7
2018-08-13T12:55:14.819Z,25.8
2018-08-13T12:56:18.405Z,25.8
2018-08-13T12:57:21.230Z,25.9
2018-08-13T12:58:25.398Z,25.9
2018-08-13T12:59:26.761Z,25.9
2018-08-13T13:00:30.762Z,25.9
2018-08-13T13:01:34.722Z,25.9
2018-08-13T13:02:36.215Z,26
2018-08-13T13:03:37.465Z,26
2018-08-13T13:04:38.687Z,26
2018-08-13T13:05:43.476Z,26
2018-08-13T13:06:49.370Z,25.9
2018-08-13T13:07:51.863Z,26
2018-08-13T13:08:56.094Z,26.1
2018-08-13T13:09:57.380Z,26.1
2018-08-13T13:11:03.615Z,26.2
2018-08-13T13:12:05.355Z,26.2
2018-08-13T13:13:07.093Z,26.2
2018-08-13T13:14:08.526Z,26.1
2018-08-13T13:15:14.661Z,26.1
2018-08-13T13:16:20.032Z,26.1
2018-08-13T13:17:21.333Z,26.1
2018-08-13T13:18:25.669Z,26.2
2018-08-13T13:19:27.000Z,26.2
2018-08-13T13:20:28.351Z,26.1
2018-08-13T13:21:31.941Z,26.2
2018-08-13T13:22:33.723Z,26
2018-08-13T13:23:37.858Z,26.1
2018-08-13T13:24:39.735Z,26.1
2018-08-13T13:25:40.976Z,26
2018-08-13T13:26:46.156Z,26.2
2018-08-13T13:27:51.423Z,26.1
2018-08-13T13:28:59.660Z,26.1
2018-08-13T13:30:01.366Z,26.1
2018-08-13T13:31:09.774Z,26.2
2018-08-13T13:32:11.055Z,26.2
2018-08-13T13:33:12.360Z,26.1
2018-08-13T13:34:13.720Z,26.1
2018-08-13T13:35:15.749Z,26.1
2018-08-13T13:36:27.763Z,26.1
2018-08-13T13:37:32.233Z,25.9
2018-08-13T13:38:37.249Z,26.1
2018-08-13T13:39:38.534Z,26
2018-08-13T13:40:42.227Z,26
2018-08-13T13:41:43.591Z,26.1
2018-08-13T13:42:45.500Z,26.1
2018-08-13T13:43:49.566Z,26.1
2018-08-13T13:44:52.586Z,26
2018-08-13T13:45:54.362Z,26.1
2018-08-13T13:46:58.450Z,26.1
2018-08-13T13:47:59.726Z,26
2018-08-13T13:49:01.070Z,26.1
2018-08-13T13:50:02.665Z,25.9
2018-08-13T13:51:07.353Z,26.1
2018-08-13T13:52:10.315Z,26
2018-08-13T13:53:11.635Z,26
2018-08-13T13:54:16.270Z,26
2018-08-13T13:55:20.022Z,26.1
2018-08-13T13:56:21.387Z,26.1
2018-08-13T13:57:22.903Z,26
2018-08-13T13:58:25.816Z,26.1
2018-08-13T13:59:32.592Z,26.1
2018-08-13T14:00:38.907Z,26.1